sensor_id;sensor_type;location;lat;lon;timestamp;temperature;humidity
7646;DHT22;3864;48.180;14.178;2023-08-20T00:01:29;19.10;99.90
7646;DHT22;3864;48.180;14.178;2023-08-20T00:03:57;19.10;99.90
7646;DHT22;3864;48.180;14.178;2023-08-20T00:06:25;19.00;99.90
7646;DHT22;3864;48.180;14.178;2023-08-20T00:08:52;18.90;99.90
7646;DHT22;3864;48.180;14.178;2023-08-20T00:11:19;18.80;99.90
7646;DHT22;3864;48.180;14.178;2023-08-20T00:13:47;18.80;99.90
7646;DHT22;3864;48.180;14.178;2023-08-20T00:16:15;18.70;99.90
7646;DHT22;3864;48.180;14.178;2023-08-20T00:18:42;18.70;99.90
7646;DHT22;3864;48.180;14.178;2023-08-20T00:21:10;18.60;99.90
7646;DHT22;3864;48.180;14.178;2023-08-20T00:23:37;18.60;99.90
7646;DHT22;3864;48.180;14.178;2023-08-20T00:26:05;18.60;99.90
7646;DHT22;3864;48.180;14.178;2023-08-20T00:28:32;18.60;99.90
7646;DHT22;3864;48.180;14.178;2023-08-20T00:31:01;18.60;99.90
7646;DHT22;3864;48.180;14.178;2023-08-20T00:33:28;18.60;99.90
7646;DHT22;3864;48.180;14.178;2023-08-20T00:35:55;18.60;99.90
7646;DHT22;3864;48.180;14.178;2023-08-20T00:38:22;18.60;99.90
7646;DHT22;3864;48.180;14.178;2023-08-20T00:40:49;18.50;99.90
7646;DHT22;3864;48.180;14.178;2023-08-20T00:43:16;18.40;99.90
7646;DHT22;3864;48.180;14.178;2023-08-20T00:45:43;18.30;99.90
7646;DHT22;3864;48.180;14.178;2023-08-20T00:48:12;18.20;99.90
7646;DHT22;3864;48.180;14.178;2023-08-20T00:50:40;18.10;99.90
7646;DHT22;3864;48.180;14.178;2023-08-20T00:53:08;18.00;99.90
7646;DHT22;3864;48.180;14.178;2023-08-20T00:55:37;18.00;99.90
7646;DHT22;3864;48.180;14.178;2023-08-20T00:58:04;17.90;99.90
7646;DHT22;3864;48.180;14.178;2023-08-20T01:00:31;17.90;99.90
7646;DHT22;3864;48.180;14.178;2023-08-20T01:02:58;17.90;99.90
7646;DHT22;3864;48.180;14.178;2023-08-20T01:05:31;18.00;99.90
7646;DHT22;3864;48.180;14.178;2023-08-20T01:08:05;18.00;99.90
7646;DHT22;3864;48.180;14.178;2023-08-20T01:10:42;18.10;99.90
7646;DHT22;3864;48.180;14.178;2023-08-20T01:13:15;18.00;99.90
7646;DHT22;3864;48.180;14.178;2023-08-20T01:15:42;18.00;99.90
7646;DHT22;3864;48.180;14.178;2023-08-20T01:18:09;17.90;99.90
7646;DHT22;3864;48.180;14.178;2023-08-20T01:20:41;17.90;99.90
7646;DHT22;3864;48.180;14.178;2023-08-20T01:26:15;17.90;99.90
7646;DHT22;3864;48.180;14.178;2023-08-20T01:28:48;17.90;99.90
7646;DHT22;3864;48.180;14.178;2023-08-20T01:31:15;17.90;99.90
7646;DHT22;3864;48.180;14.178;2023-08-20T01:33:42;17.80;99.90
7646;DHT22;3864;48.180;14.178;2023-08-20T01:36:10;17.70;99.90
7646;DHT22;3864;48.180;14.178;2023-08-20T01:38:37;17.70;99.90
7646;DHT22;3864;48.180;14.178;2023-08-20T01:41:04;17.70;99.90
7646;DHT22;3864;48.180;14.178;2023-08-20T01:43:31;17.70;99.90
7646;DHT22;3864;48.180;14.178;2023-08-20T01:46:01;17.60;99.90
7646;DHT22;3864;48.180;14.178;2023-08-20T01:48:28;17.60;99.90
7646;DHT22;3864;48.180;14.178;2023-08-20T01:50:55;17.60;99.90
7646;DHT22;3864;48.180;14.178;2023-08-20T01:53:22;17.60;99.90
7646;DHT22;3864;48.180;14.178;2023-08-20T01:55:49;17.60;99.90
7646;DHT22;3864;48.180;14.178;2023-08-20T01:58:15;17.60;99.90
7646;DHT22;3864;48.180;14.178;2023-08-20T02:00:42;17.60;99.90
7646;DHT22;3864;48.180;14.178;2023-08-20T02:03:12;17.60;99.90
7646;DHT22;3864;48.180;14.178;2023-08-20T02:05:39;17.60;99.90
7646;DHT22;3864;48.180;14.178;2023-08-20T02:08:06;17.60;99.90
7646;DHT22;3864;48.180;14.178;2023-08-20T02:10:33;17.60;99.90
7646;DHT22;3864;48.180;14.178;2023-08-20T02:13:00;17.60;99.90
7646;DHT22;3864;48.180;14.178;2023-08-20T02:15:29;17.50;99.90
7646;DHT22;3864;48.180;14.178;2023-08-20T02:17:56;17.50;99.90
7646;DHT22;3864;48.180;14.178;2023-08-20T02:20:26;17.50;99.90
7646;DHT22;3864;48.180;14.178;2023-08-20T02:22:54;17.40;99.90
7646;DHT22;3864;48.180;14.178;2023-08-20T02:25:21;17.30;99.90
7646;DHT22;3864;48.180;14.178;2023-08-20T02:27:48;17.30;99.90
7646;DHT22;3864;48.180;14.178;2023-08-20T02:30:14;17.20;99.90
7646;DHT22;3864;48.180;14.178;2023-08-20T02:32:41;17.20;99.90
7646;DHT22;3864;48.180;14.178;2023-08-20T02:35:09;17.20;99.90
7646;DHT22;3864;48.180;14.178;2023-08-20T02:37:37;17.10;99.90
7646;DHT22;3864;48.180;14.178;2023-08-20T02:40:07;17.20;99.90
7646;DHT22;3864;48.180;14.178;2023-08-20T02:42:35;17.10;99.90
7646;DHT22;3864;48.180;14.178;2023-08-20T02:45:03;17.00;99.90
7646;DHT22;3864;48.180;14.178;2023-08-20T02:47:30;17.00;99.90
7646;DHT22;3864;48.180;14.178;2023-08-20T02:49:57;17.00;99.90
7646;DHT22;3864;48.180;14.178;2023-08-20T02:52:24;17.00;99.90
7646;DHT22;3864;48.180;14.178;2023-08-20T02:54:56;16.90;99.90
7646;DHT22;3864;48.180;14.178;2023-08-20T02:57:23;16.90;99.90
7646;DHT22;3864;48.180;14.178;2023-08-20T02:59:50;17.00;99.90
7646;DHT22;3864;48.180;14.178;2023-08-20T03:02:17;17.10;99.90
7646;DHT22;3864;48.180;14.178;2023-08-20T03:04:44;17.00;99.90
7646;DHT22;3864;48.180;14.178;2023-08-20T03:07:11;17.00;99.90
7646;DHT22;3864;48.180;14.178;2023-08-20T03:09:38;17.00;99.90
7646;DHT22;3864;48.180;14.178;2023-08-20T03:12:08;17.00;99.90
7646;DHT22;3864;48.180;14.178;2023-08-20T03:14:35;16.90;99.90
7646;DHT22;3864;48.180;14.178;2023-08-20T03:17:02;16.90;99.90
7646;DHT22;3864;48.180;14.178;2023-08-20T03:19:33;16.90;99.90
7646;DHT22;3864;48.180;14.178;2023-08-20T03:22:00;16.80;99.90
7646;DHT22;3864;48.180;14.178;2023-08-20T03:24:27;16.70;99.90
7646;DHT22;3864;48.180;14.178;2023-08-20T03:26:54;16.60;99.90
7646;DHT22;3864;48.180;14.178;2023-08-20T03:29:22;16.60;99.90
7646;DHT22;3864;48.180;14.178;2023-08-20T03:31:49;16.60;99.90
7646;DHT22;3864;48.180;14.178;2023-08-20T03:34:17;16.60;99.90
7646;DHT22;3864;48.180;14.178;2023-08-20T03:36:43;16.60;99.90
7646;DHT22;3864;48.180;14.178;2023-08-20T03:39:11;16.60;99.90
7646;DHT22;3864;48.180;14.178;2023-08-20T03:41:38;16.70;99.90
7646;DHT22;3864;48.180;14.178;2023-08-20T03:44:05;16.80;99.90
7646;DHT22;3864;48.180;14.178;2023-08-20T03:46:34;16.80;99.90
7646;DHT22;3864;48.180;14.178;2023-08-20T03:49:01;16.70;99.90
7646;DHT22;3864;48.180;14.178;2023-08-20T03:51:28;16.70;99.90
7646;DHT22;3864;48.180;14.178;2023-08-20T03:53:55;16.80;99.90
7646;DHT22;3864;48.180;14.178;2023-08-20T03:56:22;16.90;99.90
7646;DHT22;3864;48.180;14.178;2023-08-20T03:58:50;16.90;99.90
7646;DHT22;3864;48.180;14.178;2023-08-20T04:01:18;16.90;99.90
7646;DHT22;3864;48.180;14.178;2023-08-20T04:03:47;16.90;99.90
7646;DHT22;3864;48.180;14.178;2023-08-20T04:06:14;16.80;99.90
7646;DHT22;3864;48.180;14.178;2023-08-20T04:08:41;16.80;99.90
7646;DHT22;3864;48.180;14.178;2023-08-20T04:11:08;16.70;99.90
7646;DHT22;3864;48.180;14.178;2023-08-20T04:13:35;16.70;99.90
7646;DHT22;3864;48.180;14.178;2023-08-20T04:16:03;16.60;99.90
7646;DHT22;3864;48.180;14.178;2023-08-20T04:18:30;16.50;99.90
7646;DHT22;3864;48.180;14.178;2023-08-20T04:20:58;16.50;99.90
7646;DHT22;3864;48.180;14.178;2023-08-20T04:23:25;16.50;99.90
7646;DHT22;3864;48.180;14.178;2023-08-20T04:25:52;16.50;99.90
7646;DHT22;3864;48.180;14.178;2023-08-20T04:28:19;16.50;99.90
7646;DHT22;3864;48.180;14.178;2023-08-20T04:30:46;16.40;99.90
7646;DHT22;3864;48.180;14.178;2023-08-20T04:33:13;16.40;99.90
7646;DHT22;3864;48.180;14.178;2023-08-20T04:35:40;16.30;99.90
7646;DHT22;3864;48.180;14.178;2023-08-20T04:38:09;16.40;99.90
7646;DHT22;3864;48.180;14.178;2023-08-20T04:40:36;16.40;99.90
7646;DHT22;3864;48.180;14.178;2023-08-20T04:43:03;16.40;99.90
7646;DHT22;3864;48.180;14.178;2023-08-20T04:45:30;16.50;99.90
7646;DHT22;3864;48.180;14.178;2023-08-20T04:47:57;16.50;99.90
7646;DHT22;3864;48.180;14.178;2023-08-20T04:50:24;16.50;99.90
7646;DHT22;3864;48.180;14.178;2023-08-20T04:52:51;16.50;99.90
7646;DHT22;3864;48.180;14.178;2023-08-20T04:55:20;16.60;99.90
7646;DHT22;3864;48.180;14.178;2023-08-20T04:57:47;16.70;99.90
7646;DHT22;3864;48.180;14.178;2023-08-20T05:00:15;16.80;99.90
7646;DHT22;3864;48.180;14.178;2023-08-20T05:02:42;16.80;99.90
7646;DHT22;3864;48.180;14.178;2023-08-20T05:05:10;16.80;99.90
7646;DHT22;3864;48.180;14.178;2023-08-20T05:07:37;16.80;99.90
7646;DHT22;3864;48.180;14.178;2023-08-20T05:10:05;16.90;99.90
7646;DHT22;3864;48.180;14.178;2023-08-20T05:12:33;17.10;99.90
7646;DHT22;3864;48.180;14.178;2023-08-20T05:15:00;17.20;99.90
7646;DHT22;3864;48.180;14.178;2023-08-20T05:17:27;17.30;99.90
7646;DHT22;3864;48.180;14.178;2023-08-20T05:19:54;17.40;99.90
7646;DHT22;3864;48.180;14.178;2023-08-20T05:22:21;17.50;99.90
7646;DHT22;3864;48.180;14.178;2023-08-20T05:24:48;17.60;99.90
7646;DHT22;3864;48.180;14.178;2023-08-20T05:27:16;17.70;99.90
7646;DHT22;3864;48.180;14.178;2023-08-20T05:29:52;17.80;99.90
7646;DHT22;3864;48.180;14.178;2023-08-20T05:32:19;17.90;99.90
7646;DHT22;3864;48.180;14.178;2023-08-20T05:34:45;17.90;99.90
7646;DHT22;3864;48.180;14.178;2023-08-20T05:37:12;17.90;99.90
7646;DHT22;3864;48.180;14.178;2023-08-20T05:39:41;18.00;99.90
7646;DHT22;3864;48.180;14.178;2023-08-20T05:42:09;18.00;99.90
7646;DHT22;3864;48.180;14.178;2023-08-20T05:44:36;18.10;99.90
7646;DHT22;3864;48.180;14.178;2023-08-20T05:47:05;18.10;99.90
7646;DHT22;3864;48.180;14.178;2023-08-20T05:49:32;18.10;99.90
7646;DHT22;3864;48.180;14.178;2023-08-20T05:51:59;18.20;99.90
7646;DHT22;3864;48.180;14.178;2023-08-20T05:54:26;18.30;99.90
7646;DHT22;3864;48.180;14.178;2023-08-20T05:56:53;18.30;99.90
7646;DHT22;3864;48.180;14.178;2023-08-20T05:59:20;18.40;99.90
7646;DHT22;3864;48.180;14.178;2023-08-20T06:01:47;18.40;99.90
7646;DHT22;3864;48.180;14.178;2023-08-20T06:04:15;18.50;99.90
7646;DHT22;3864;48.180;14.178;2023-08-20T06:06:44;18.60;99.90
7646;DHT22;3864;48.180;14.178;2023-08-20T06:09:11;18.60;99.90
7646;DHT22;3864;48.180;14.178;2023-08-20T06:11:37;18.70;99.90
7646;DHT22;3864;48.180;14.178;2023-08-20T06:14:05;18.80;99.90
7646;DHT22;3864;48.180;14.178;2023-08-20T06:16:32;18.80;99.90
7646;DHT22;3864;48.180;14.178;2023-08-20T06:18:59;18.90;99.90
7646;DHT22;3864;48.180;14.178;2023-08-20T06:21:27;19.00;99.90
7646;DHT22;3864;48.180;14.178;2023-08-20T06:23:54;19.10;99.90
7646;DHT22;3864;48.180;14.178;2023-08-20T06:26:22;19.20;99.90
7646;DHT22;3864;48.180;14.178;2023-08-20T06:28:49;19.30;99.90
7646;DHT22;3864;48.180;14.178;2023-08-20T06:31:16;20.00;99.90
7646;DHT22;3864;48.180;14.178;2023-08-20T06:33:43;20.90;99.90
7646;DHT22;3864;48.180;14.178;2023-08-20T06:36:10;22.40;99.90
7646;DHT22;3864;48.180;14.178;2023-08-20T06:38:38;24.00;99.90
7646;DHT22;3864;48.180;14.178;2023-08-20T06:41:05;25.00;99.90
7646;DHT22;3864;48.180;14.178;2023-08-20T06:43:32;25.40;99.90
7646;DHT22;3864;48.180;14.178;2023-08-20T06:45:59;26.20;99.90
7646;DHT22;3864;48.180;14.178;2023-08-20T06:48:26;26.90;99.90
7646;DHT22;3864;48.180;14.178;2023-08-20T06:50:53;27.70;99.90
7646;DHT22;3864;48.180;14.178;2023-08-20T06:53:20;28.50;99.90
7646;DHT22;3864;48.180;14.178;2023-08-20T06:55:49;29.10;99.90
7646;DHT22;3864;48.180;14.178;2023-08-20T06:58:16;29.60;99.90
7646;DHT22;3864;48.180;14.178;2023-08-20T07:00:43;29.80;99.90
7646;DHT22;3864;48.180;14.178;2023-08-20T07:03:10;29.90;99.90
7646;DHT22;3864;48.180;14.178;2023-08-20T07:05:37;29.90;99.90
7646;DHT22;3864;48.180;14.178;2023-08-20T07:08:04;30.00;99.90
7646;DHT22;3864;48.180;14.178;2023-08-20T07:10:31;29.80;99.90
7646;DHT22;3864;48.180;14.178;2023-08-20T07:13:00;29.80;99.90
7646;DHT22;3864;48.180;14.178;2023-08-20T07:15:27;29.70;99.90
7646;DHT22;3864;48.180;14.178;2023-08-20T07:17:54;29.50;99.90
7646;DHT22;3864;48.180;14.178;2023-08-20T07:20:21;28.90;99.90
7646;DHT22;3864;48.180;14.178;2023-08-20T07:22:48;28.40;99.90
7646;DHT22;3864;48.180;14.178;2023-08-20T07:25:15;27.70;99.90
7646;DHT22;3864;48.180;14.178;2023-08-20T07:27:42;27.20;99.90
7646;DHT22;3864;48.180;14.178;2023-08-20T07:30:12;27.10;99.90
7646;DHT22;3864;48.180;14.178;2023-08-20T07:32:39;27.30;99.90
7646;DHT22;3864;48.180;14.178;2023-08-20T07:35:06;28.00;99.90
7646;DHT22;3864;48.180;14.178;2023-08-20T07:37:34;28.50;99.90
7646;DHT22;3864;48.180;14.178;2023-08-20T07:40:01;28.50;99.90
7646;DHT22;3864;48.180;14.178;2023-08-20T07:42:28;28.80;99.90
7646;DHT22;3864;48.180;14.178;2023-08-20T07:44:55;28.50;99.90
7646;DHT22;3864;48.180;14.178;2023-08-20T07:47:23;29.00;99.90
7646;DHT22;3864;48.180;14.178;2023-08-20T07:49:51;29.20;99.90
7646;DHT22;3864;48.180;14.178;2023-08-20T07:52:18;29.10;99.90
7646;DHT22;3864;48.180;14.178;2023-08-20T07:54:45;28.70;99.90
7646;DHT22;3864;48.180;14.178;2023-08-20T07:57:12;28.50;99.90
7646;DHT22;3864;48.180;14.178;2023-08-20T07:59:38;28.30;99.90
7646;DHT22;3864;48.180;14.178;2023-08-20T08:02:06;28.40;99.90
7646;DHT22;3864;48.180;14.178;2023-08-20T08:04:38;28.30;99.90
7646;DHT22;3864;48.180;14.178;2023-08-20T08:07:06;28.10;99.90
7646;DHT22;3864;48.180;14.178;2023-08-20T08:09:46;27.80;99.90
7646;DHT22;3864;48.180;14.178;2023-08-20T08:12:13;27.50;99.90
7646;DHT22;3864;48.180;14.178;2023-08-20T08:14:40;27.30;99.90
7646;DHT22;3864;48.180;14.178;2023-08-20T08:17:07;27.10;99.90
7646;DHT22;3864;48.180;14.178;2023-08-20T08:19:36;27.10;99.90
7646;DHT22;3864;48.180;14.178;2023-08-20T08:22:03;27.60;99.90
7646;DHT22;3864;48.180;14.178;2023-08-20T08:24:30;28.10;99.90
7646;DHT22;3864;48.180;14.178;2023-08-20T08:26:57;28.40;99.90
7646;DHT22;3864;48.180;14.178;2023-08-20T08:29:25;28.80;99.90
7646;DHT22;3864;48.180;14.178;2023-08-20T08:31:52;29.10;99.90
7646;DHT22;3864;48.180;14.178;2023-08-20T08:34:19;29.10;99.90
7646;DHT22;3864;48.180;14.178;2023-08-20T08:36:48;29.30;99.90
7646;DHT22;3864;48.180;14.178;2023-08-20T08:39:15;29.70;99.90
7646;DHT22;3864;48.180;14.178;2023-08-20T08:41:43;30.30;99.90
7646;DHT22;3864;48.180;14.178;2023-08-20T08:44:11;30.50;99.90
7646;DHT22;3864;48.180;14.178;2023-08-20T08:46:38;30.60;99.90
7646;DHT22;3864;48.180;14.178;2023-08-20T08:49:05;30.60;99.90
7646;DHT22;3864;48.180;14.178;2023-08-20T08:51:34;30.80;99.90
7646;DHT22;3864;48.180;14.178;2023-08-20T08:54:05;30.80;99.90
7646;DHT22;3864;48.180;14.178;2023-08-20T08:56:33;30.90;99.90
7646;DHT22;3864;48.180;14.178;2023-08-20T08:59:00;31.00;99.90
7646;DHT22;3864;48.180;14.178;2023-08-20T09:01:27;31.10;99.90
7646;DHT22;3864;48.180;14.178;2023-08-20T09:03:54;31.40;99.90
7646;DHT22;3864;48.180;14.178;2023-08-20T09:06:21;31.80;99.90
7646;DHT22;3864;48.180;14.178;2023-08-20T09:08:48;32.20;99.90
7646;DHT22;3864;48.180;14.178;2023-08-20T09:11:20;32.40;99.90
7646;DHT22;3864;48.180;14.178;2023-08-20T09:13:47;32.40;99.90
7646;DHT22;3864;48.180;14.178;2023-08-20T09:16:14;32.40;99.90
7646;DHT22;3864;48.180;14.178;2023-08-20T09:18:44;32.50;99.90
7646;DHT22;3864;48.180;14.178;2023-08-20T09:21:13;32.20;99.90
7646;DHT22;3864;48.180;14.178;2023-08-20T09:23:40;32.40;99.90
7646;DHT22;3864;48.180;14.178;2023-08-20T09:26:11;32.80;99.90
7646;DHT22;3864;48.180;14.178;2023-08-20T09:28:45;33.50;99.90
7646;DHT22;3864;48.180;14.178;2023-08-20T09:31:13;34.50;99.90
7646;DHT22;3864;48.180;14.178;2023-08-20T09:33:49;35.00;99.90
7646;DHT22;3864;48.180;14.178;2023-08-20T09:36:16;34.80;99.90
7646;DHT22;3864;48.180;14.178;2023-08-20T09:38:43;34.80;99.90
7646;DHT22;3864;48.180;14.178;2023-08-20T09:41:12;34.20;99.90
7646;DHT22;3864;48.180;14.178;2023-08-20T09:43:40;34.30;99.90
7646;DHT22;3864;48.180;14.178;2023-08-20T09:46:10;34.30;99.90
7646;DHT22;3864;48.180;14.178;2023-08-20T09:48:41;33.90;99.90
7646;DHT22;3864;48.180;14.178;2023-08-20T09:51:11;33.30;99.90
7646;DHT22;3864;48.180;14.178;2023-08-20T09:53:46;33.00;99.90
7646;DHT22;3864;48.180;14.178;2023-08-20T09:56:20;33.00;99.90
7646;DHT22;3864;48.180;14.178;2023-08-20T09:58:49;33.20;99.90
7646;DHT22;3864;48.180;14.178;2023-08-20T10:01:18;33.70;99.90
7646;DHT22;3864;48.180;14.178;2023-08-20T10:03:46;33.60;99.90
7646;DHT22;3864;48.180;14.178;2023-08-20T10:06:13;33.20;99.90
7646;DHT22;3864;48.180;14.178;2023-08-20T10:08:40;33.40;99.90
7646;DHT22;3864;48.180;14.178;2023-08-20T10:11:07;33.50;99.90
7646;DHT22;3864;48.180;14.178;2023-08-20T10:13:34;33.30;99.90
7646;DHT22;3864;48.180;14.178;2023-08-20T10:16:05;32.80;99.90
7646;DHT22;3864;48.180;14.178;2023-08-20T10:18:34;32.30;99.90
7646;DHT22;3864;48.180;14.178;2023-08-20T10:21:02;32.10;99.90
7646;DHT22;3864;48.180;14.178;2023-08-20T10:23:29;32.00;99.90
7646;DHT22;3864;48.180;14.178;2023-08-20T10:26:07;32.00;99.90
7646;DHT22;3864;48.180;14.178;2023-08-20T10:28:34;31.90;99.90
7646;DHT22;3864;48.180;14.178;2023-08-20T10:31:07;31.80;99.90
7646;DHT22;3864;48.180;14.178;2023-08-20T10:33:37;31.90;99.90
7646;DHT22;3864;48.180;14.178;2023-08-20T10:36:14;31.90;99.90
7646;DHT22;3864;48.180;14.178;2023-08-20T10:38:41;31.60;99.90
7646;DHT22;3864;48.180;14.178;2023-08-20T10:41:09;31.20;99.90
7646;DHT22;3864;48.180;14.178;2023-08-20T10:43:39;31.00;99.90
7646;DHT22;3864;48.180;14.178;2023-08-20T10:46:08;31.00;99.90
7646;DHT22;3864;48.180;14.178;2023-08-20T10:48:40;30.90;99.90
7646;DHT22;3864;48.180;14.178;2023-08-20T10:51:10;31.10;99.90
7646;DHT22;3864;48.180;14.178;2023-08-20T10:53:37;31.10;99.90
7646;DHT22;3864;48.180;14.178;2023-08-20T10:56:12;31.20;99.90
7646;DHT22;3864;48.180;14.178;2023-08-20T10:58:41;31.30;99.90
7646;DHT22;3864;48.180;14.178;2023-08-20T11:01:19;31.40;99.90
7646;DHT22;3864;48.180;14.178;2023-08-20T11:03:50;31.60;99.90
7646;DHT22;3864;48.180;14.178;2023-08-20T11:06:18;31.70;99.90
7646;DHT22;3864;48.180;14.178;2023-08-20T11:08:45;31.80;99.90
7646;DHT22;3864;48.180;14.178;2023-08-20T11:11:12;32.00;99.90
7646;DHT22;3864;48.180;14.178;2023-08-20T11:13:40;32.00;99.90
7646;DHT22;3864;48.180;14.178;2023-08-20T11:16:09;32.00;99.90
7646;DHT22;3864;48.180;14.178;2023-08-20T11:18:36;31.80;99.90
7646;DHT22;3864;48.180;14.178;2023-08-20T11:21:05;31.60;99.90
7646;DHT22;3864;48.180;14.178;2023-08-20T11:23:35;31.70;99.90
7646;DHT22;3864;48.180;14.178;2023-08-20T11:26:05;31.80;99.90
7646;DHT22;3864;48.180;14.178;2023-08-20T11:28:33;32.20;99.90
7646;DHT22;3864;48.180;14.178;2023-08-20T11:31:01;32.30;99.90
7646;DHT22;3864;48.180;14.178;2023-08-20T11:33:28;32.60;99.90
7646;DHT22;3864;48.180;14.178;2023-08-20T11:35:56;32.50;99.90
7646;DHT22;3864;48.180;14.178;2023-08-20T11:38:25;32.90;99.90
7646;DHT22;3864;48.180;14.178;2023-08-20T11:40:52;33.10;99.90
7646;DHT22;3864;48.180;14.178;2023-08-20T11:43:28;33.00;99.90
7646;DHT22;3864;48.180;14.178;2023-08-20T11:45:55;33.20;99.90
7646;DHT22;3864;48.180;14.178;2023-08-20T11:48:23;33.60;99.90
7646;DHT22;3864;48.180;14.178;2023-08-20T11:50:50;34.00;99.90
7646;DHT22;3864;48.180;14.178;2023-08-20T11:53:21;34.00;99.90
7646;DHT22;3864;48.180;14.178;2023-08-20T11:55:51;34.30;99.90
7646;DHT22;3864;48.180;14.178;2023-08-20T11:58:19;34.90;99.90
7646;DHT22;3864;48.180;14.178;2023-08-20T12:00:49;35.00;99.90
7646;DHT22;3864;48.180;14.178;2023-08-20T12:03:18;34.60;99.90
7646;DHT22;3864;48.180;14.178;2023-08-20T12:05:46;34.30;99.90
7646;DHT22;3864;48.180;14.178;2023-08-20T12:08:16;34.30;99.90
7646;DHT22;3864;48.180;14.178;2023-08-20T12:10:44;34.40;99.90
7646;DHT22;3864;48.180;14.178;2023-08-20T12:13:13;34.40;99.90
7646;DHT22;3864;48.180;14.178;2023-08-20T12:15:40;34.40;99.90
7646;DHT22;3864;48.180;14.178;2023-08-20T12:18:07;34.30;99.90
7646;DHT22;3864;48.180;14.178;2023-08-20T12:20:36;34.20;99.90
7646;DHT22;3864;48.180;14.178;2023-08-20T12:23:06;34.10;99.90
7646;DHT22;3864;48.180;14.178;2023-08-20T12:25:34;34.20;99.90
7646;DHT22;3864;48.180;14.178;2023-08-20T12:28:03;34.30;99.90
7646;DHT22;3864;48.180;14.178;2023-08-20T12:30:32;34.40;99.90
7646;DHT22;3864;48.180;14.178;2023-08-20T12:33:00;34.50;99.90
7646;DHT22;3864;48.180;14.178;2023-08-20T12:35:28;34.30;99.90
7646;DHT22;3864;48.180;14.178;2023-08-20T12:37:55;34.30;99.90
7646;DHT22;3864;48.180;14.178;2023-08-20T12:40:31;34.30;99.90
7646;DHT22;3864;48.180;14.178;2023-08-20T12:42:58;34.30;99.90
7646;DHT22;3864;48.180;14.178;2023-08-20T12:45:25;34.40;99.90
7646;DHT22;3864;48.180;14.178;2023-08-20T12:47:53;34.60;99.90
7646;DHT22;3864;48.180;14.178;2023-08-20T12:50:20;35.10;99.90
7646;DHT22;3864;48.180;14.178;2023-08-20T12:52:48;35.40;99.90
7646;DHT22;3864;48.180;14.178;2023-08-20T12:55:16;35.70;99.90
7646;DHT22;3864;48.180;14.178;2023-08-20T12:57:52;36.00;99.90
7646;DHT22;3864;48.180;14.178;2023-08-20T13:00:20;35.90;99.90
7646;DHT22;3864;48.180;14.178;2023-08-20T13:02:48;35.90;99.90
7646;DHT22;3864;48.180;14.178;2023-08-20T13:05:22;36.40;99.90
7646;DHT22;3864;48.180;14.178;2023-08-20T13:07:50;37.00;99.90
7646;DHT22;3864;48.180;14.178;2023-08-20T13:10:18;37.30;99.90
7646;DHT22;3864;48.180;14.178;2023-08-20T13:12:48;37.50;99.90
7646;DHT22;3864;48.180;14.178;2023-08-20T13:15:16;37.60;99.90
7646;DHT22;3864;48.180;14.178;2023-08-20T13:17:46;37.30;99.90
7646;DHT22;3864;48.180;14.178;2023-08-20T13:20:13;37.30;99.90
7646;DHT22;3864;48.180;14.178;2023-08-20T13:22:42;37.30;99.90
7646;DHT22;3864;48.180;14.178;2023-08-20T13:25:10;37.00;99.90
7646;DHT22;3864;48.180;14.178;2023-08-20T13:27:37;36.80;99.90
7646;DHT22;3864;48.180;14.178;2023-08-20T13:30:05;36.80;99.90
7646;DHT22;3864;48.180;14.178;2023-08-20T13:32:33;36.70;99.90
7646;DHT22;3864;48.180;14.178;2023-08-20T13:35:01;36.40;99.90
7646;DHT22;3864;48.180;14.178;2023-08-20T13:37:29;36.40;99.90
7646;DHT22;3864;48.180;14.178;2023-08-20T13:39:59;36.50;99.70
7646;DHT22;3864;48.180;14.178;2023-08-20T13:42:26;36.20;99.90
7646;DHT22;3864;48.180;14.178;2023-08-20T13:44:53;36.20;99.90
7646;DHT22;3864;48.180;14.178;2023-08-20T13:47:21;35.80;99.90
7646;DHT22;3864;48.180;14.178;2023-08-20T13:49:48;36.10;99.90
7646;DHT22;3864;48.180;14.178;2023-08-20T13:52:15;36.20;99.90
7646;DHT22;3864;48.180;14.178;2023-08-20T13:54:42;36.10;99.90
7646;DHT22;3864;48.180;14.178;2023-08-20T13:57:10;35.60;99.90
7646;DHT22;3864;48.180;14.178;2023-08-20T13:59:37;35.60;98.00
7646;DHT22;3864;48.180;14.178;2023-08-20T14:02:05;35.90;99.40
7646;DHT22;3864;48.180;14.178;2023-08-20T14:04:32;36.00;93.70
7646;DHT22;3864;48.180;14.178;2023-08-20T14:06:59;36.00;99.40
7646;DHT22;3864;48.180;14.178;2023-08-20T14:09:27;35.80;98.00
7646;DHT22;3864;48.180;14.178;2023-08-20T14:11:54;35.70;98.40
7646;DHT22;3864;48.180;14.178;2023-08-20T14:14:23;35.70;94.80
7646;DHT22;3864;48.180;14.178;2023-08-20T14:16:50;35.70;98.20
7646;DHT22;3864;48.180;14.178;2023-08-20T14:19:17;35.30;96.20
7646;DHT22;3864;48.180;14.178;2023-08-20T14:21:45;35.50;97.90
7646;DHT22;3864;48.180;14.178;2023-08-20T14:24:12;35.50;97.70
7646;DHT22;3864;48.180;14.178;2023-08-20T14:26:39;35.60;98.50
7646;DHT22;3864;48.180;14.178;2023-08-20T14:29:06;35.70;97.30
7646;DHT22;3864;48.180;14.178;2023-08-20T14:31:34;36.00;97.80
7646;DHT22;3864;48.180;14.178;2023-08-20T14:34:01;35.90;98.70
7646;DHT22;3864;48.180;14.178;2023-08-20T14:36:28;36.00;99.20
7646;DHT22;3864;48.180;14.178;2023-08-20T14:38:55;35.60;97.50
7646;DHT22;3864;48.180;14.178;2023-08-20T14:41:22;35.60;97.90
7646;DHT22;3864;48.180;14.178;2023-08-20T14:43:49;35.60;99.90
7646;DHT22;3864;48.180;14.178;2023-08-20T14:46:17;35.00;95.30
7646;DHT22;3864;48.180;14.178;2023-08-20T14:48:45;35.00;99.90
7646;DHT22;3864;48.180;14.178;2023-08-20T14:51:12;34.70;99.90
7646;DHT22;3864;48.180;14.178;2023-08-20T14:53:39;34.70;99.90
7646;DHT22;3864;48.180;14.178;2023-08-20T14:56:06;34.80;99.90
7646;DHT22;3864;48.180;14.178;2023-08-20T14:58:33;34.80;96.70
7646;DHT22;3864;48.180;14.178;2023-08-20T15:01:00;35.00;99.90
7646;DHT22;3864;48.180;14.178;2023-08-20T15:03:28;35.20;99.90
7646;DHT22;3864;48.180;14.178;2023-08-20T15:05:57;35.20;98.90
7646;DHT22;3864;48.180;14.178;2023-08-20T15:08:24;35.40;99.90
7646;DHT22;3864;48.180;14.178;2023-08-20T15:10:56;35.40;99.90
7646;DHT22;3864;48.180;14.178;2023-08-20T15:13:24;35.30;99.90
7646;DHT22;3864;48.180;14.178;2023-08-20T15:15:52;35.40;99.90
7646;DHT22;3864;48.180;14.178;2023-08-20T15:18:19;35.30;99.90
7646;DHT22;3864;48.180;14.178;2023-08-20T15:20:53;35.40;99.90
7646;DHT22;3864;48.180;14.178;2023-08-20T15:23:22;35.30;99.90
7646;DHT22;3864;48.180;14.178;2023-08-20T15:25:50;35.40;99.90
7646;DHT22;3864;48.180;14.178;2023-08-20T15:28:18;35.20;99.90
7646;DHT22;3864;48.180;14.178;2023-08-20T15:30:44;35.10;99.90
7646;DHT22;3864;48.180;14.178;2023-08-20T15:33:11;35.20;99.90
7646;DHT22;3864;48.180;14.178;2023-08-20T15:35:39;35.20;99.90
7646;DHT22;3864;48.180;14.178;2023-08-20T15:38:07;35.30;99.90
7646;DHT22;3864;48.180;14.178;2023-08-20T15:40:36;35.40;99.90
7646;DHT22;3864;48.180;14.178;2023-08-20T15:43:03;35.30;99.90
7646;DHT22;3864;48.180;14.178;2023-08-20T15:45:31;35.20;99.90
7646;DHT22;3864;48.180;14.178;2023-08-20T15:47:58;35.20;99.90
7646;DHT22;3864;48.180;14.178;2023-08-20T15:50:25;35.20;99.90
7646;DHT22;3864;48.180;14.178;2023-08-20T15:52:53;35.00;99.90